createdAt,value
2017-08-23T00:00:11.630Z,17.20
2017-08-23T00:02:39.079Z,17.30
2017-08-23T00:05:06.557Z,17.30
2017-08-23T00:07:34.020Z,17.20
2017-08-23T00:10:01.474Z,17.20
2017-08-23T00:12:28.919Z,17.20
2017-08-23T00:14:56.384Z,17.20
2017-08-23T00:17:23.831Z,17.10
2017-08-23T00:19:51.275Z,17.10
2017-08-23T00:22:18.736Z,17.10
2017-08-23T00:24:46.280Z,17.10
2017-08-23T00:27:13.841Z,17.10
2017-08-23T00:29:41.398Z,17.00
2017-08-23T00:32:08.889Z,17.00
2017-08-23T00:34:36.362Z,17.00
2017-08-23T00:37:03.798Z,16.90
2017-08-23T00:39:31.243Z,16.80
2017-08-23T00:41:58.696Z,16.80
2017-08-23T00:44:26.181Z,16.80
2017-08-23T00:46:53.624Z,16.70
2017-08-23T00:49:21.093Z,16.70
2017-08-23T00:51:48.535Z,16.60
2017-08-23T00:54:16.764Z,16.50
2017-08-23T00:56:44.201Z,16.50
2017-08-23T00:59:11.649Z,16.50
2017-08-23T01:01:39.119Z,16.50
2017-08-23T01:04:06.553Z,16.50
2017-08-23T01:06:34.020Z,16.50
2017-08-23T01:09:01.464Z,16.40
2017-08-23T01:11:28.913Z,16.40
2017-08-23T01:13:56.372Z,16.40
2017-08-23T01:16:23.840Z,16.40
2017-08-23T01:18:51.302Z,16.30
2017-08-23T01:21:18.732Z,16.30
2017-08-23T01:23:46.196Z,16.30
2017-08-23T01:26:13.641Z,16.40
2017-08-23T01:28:41.095Z,16.30
2017-08-23T01:31:08.540Z,16.30
2017-08-23T01:33:35.992Z,16.30
2017-08-23T01:36:03.452Z,16.20
2017-08-23T01:38:30.924Z,16.30
2017-08-23T01:40:58.370Z,16.10
2017-08-23T01:43:25.855Z,16.20
2017-08-23T01:45:53.328Z,16.20
2017-08-23T01:48:20.796Z,16.00
2017-08-23T01:50:48.257Z,16.00
2017-08-23T01:53:15.708Z,16.00
2017-08-23T01:55:43.225Z,15.90
2017-08-23T01:58:10.681Z,15.80
2017-08-23T02:00:38.120Z,15.90
2017-08-23T02:03:05.592Z,15.90
2017-08-23T02:05:33.036Z,15.80
2017-08-23T02:08:00.513Z,15.80
2017-08-23T02:10:27.969Z,15.90
2017-08-23T02:12:55.448Z,15.90
2017-08-23T02:15:22.881Z,15.90
2017-08-23T02:17:50.348Z,15.90
2017-08-23T02:20:17.817Z,15.90
2017-08-23T02:22:45.256Z,16.00
2017-08-23T02:25:12.717Z,16.10
2017-08-23T02:27:40.176Z,16.10
2017-08-23T02:30:07.615Z,16.10
2017-08-23T02:32:35.069Z,16.00
2017-08-23T02:35:02.506Z,16.00
2017-08-23T02:37:29.964Z,16.10
2017-08-23T02:39:57.432Z,16.00
2017-08-23T02:42:24.878Z,16.00
2017-08-23T02:44:52.340Z,16.00
2017-08-23T02:47:19.779Z,16.00
2017-08-23T02:49:47.246Z,16.00
2017-08-23T02:52:14.773Z,15.90
2017-08-23T02:54:42.233Z,15.90
2017-08-23T02:57:09.691Z,16.00
2017-08-23T02:59:37.132Z,16.00
2017-08-23T03:02:04.602Z,16.00
2017-08-23T03:04:32.051Z,15.90
2017-08-23T03:06:59.529Z,15.90
2017-08-23T03:09:26.983Z,15.80
2017-08-23T03:11:54.432Z,15.80
2017-08-23T03:14:21.900Z,15.80
2017-08-23T03:16:49.373Z,15.70
2017-08-23T03:19:17.704Z,15.80
2017-08-23T03:21:45.168Z,15.80
2017-08-23T03:24:12.634Z,15.60
2017-08-23T03:26:40.141Z,15.60
2017-08-23T03:29:07.596Z,15.70
2017-08-23T03:31:35.052Z,15.70
2017-08-23T03:34:02.522Z,15.60
2017-08-23T03:36:29.956Z,15.60
2017-08-23T03:38:57.392Z,15.70
2017-08-23T03:41:24.856Z,15.70
2017-08-23T03:43:52.299Z,15.60
2017-08-23T03:46:19.766Z,15.50
2017-08-23T03:48:47.221Z,15.60
2017-08-23T03:51:14.687Z,15.60
2017-08-23T03:53:42.925Z,15.60
2017-08-23T03:56:10.363Z,15.50
2017-08-23T03:58:38.617Z,15.50
2017-08-23T04:01:06.075Z,15.50
2017-08-23T04:03:33.568Z,15.40
2017-08-23T04:06:01.023Z,15.50
2017-08-23T04:08:28.474Z,15.50
2017-08-23T04:10:55.935Z,15.50
2017-08-23T04:13:24.154Z,15.50
2017-08-23T04:15:51.654Z,15.40
2017-08-23T04:18:19.104Z,15.40
2017-08-23T04:20:46.588Z,15.40
2017-08-23T04:23:14.043Z,15.30
2017-08-23T04:25:41.512Z,15.30
2017-08-23T04:28:08.978Z,15.40
2017-08-23T04:30:37.205Z,15.30
2017-08-23T04:33:04.666Z,15.30
2017-08-23T04:35:32.128Z,15.30
2017-08-23T04:38:00.372Z,15.20
2017-08-23T04:40:27.830Z,15.10
2017-08-23T04:42:55.295Z,15.20
2017-08-23T04:45:22.769Z,15.60
2017-08-23T04:47:50.209Z,15.50
2017-08-23T04:50:17.678Z,15.30
2017-08-23T04:52:45.159Z,15.30
2017-08-23T04:55:12.608Z,15.10
2017-08-23T04:57:40.072Z,15.10
2017-08-23T05:00:07.528Z,15.10
2017-08-23T05:02:34.989Z,15.20
2017-08-23T05:05:02.460Z,15.20
2017-08-23T05:07:29.917Z,15.40
2017-08-23T05:09:57.396Z,15.40
2017-08-23T05:12:24.859Z,15.40
2017-08-23T05:14:53.066Z,15.50
2017-08-23T05:17:20.522Z,15.50
2017-08-23T05:19:47.995Z,15.50
2017-08-23T05:22:16.254Z,15.60
2017-08-23T05:24:43.947Z,15.50
2017-08-23T05:27:11.412Z,15.80
2017-08-23T05:29:38.876Z,16.10
2017-08-23T05:32:06.313Z,16.70
2017-08-23T05:34:33.791Z,17.30
2017-08-23T05:37:01.267Z,17.80
2017-08-23T05:39:28.753Z,18.20
2017-08-23T05:41:56.196Z,18.50
2017-08-23T05:44:23.657Z,19.00
2017-08-23T05:46:51.103Z,19.30
2017-08-23T05:49:19.064Z,19.80
2017-08-23T05:51:46.549Z,19.70
2017-08-23T05:54:14.005Z,19.70
2017-08-23T05:56:41.472Z,19.80
2017-08-23T05:59:08.909Z,20.20
2017-08-23T06:01:36.366Z,20.30
2017-08-23T06:04:03.804Z,19.70
2017-08-23T06:06:31.290Z,19.30
2017-08-23T06:08:58.796Z,19.40
2017-08-23T06:11:26.258Z,19.80
2017-08-23T06:13:53.729Z,20.10
2017-08-23T06:16:21.173Z,19.90
2017-08-23T06:18:48.684Z,19.50
2017-08-23T06:21:16.127Z,19.30
2017-08-23T06:23:43.599Z,19.10
2017-08-23T06:26:11.062Z,19.10
2017-08-23T06:28:38.538Z,19.30
2017-08-23T06:31:05.996Z,19.80
2017-08-23T06:33:33.465Z,20.10
2017-08-23T06:36:00.921Z,20.30
2017-08-23T06:38:28.409Z,20.20
2017-08-23T06:40:55.900Z,20.70
2017-08-23T06:43:24.111Z,22.30
2017-08-23T06:45:51.568Z,22.20
2017-08-23T06:48:19.024Z,22.80
2017-08-23T06:50:46.469Z,23.30
2017-08-23T06:53:13.920Z,23.40
2017-08-23T06:55:41.358Z,23.40
2017-08-23T06:58:08.832Z,23.00
2017-08-23T07:00:36.274Z,22.80
2017-08-23T07:03:03.737Z,22.20
2017-08-23T07:05:31.207Z,21.40
2017-08-23T07:07:58.683Z,21.00
2017-08-23T07:10:26.131Z,21.00
2017-08-23T07:12:53.584Z,21.50
2017-08-23T07:15:21.819Z,22.80
2017-08-23T07:17:49.271Z,22.80
2017-08-23T07:20:16.787Z,23.30
2017-08-23T07:22:44.224Z,23.40
2017-08-23T07:25:11.788Z,23.10
2017-08-23T07:27:39.251Z,23.00
2017-08-23T07:30:06.705Z,23.50
2017-08-23T07:32:34.151Z,24.00
2017-08-23T07:35:01.608Z,25.20
2017-08-23T07:37:29.076Z,25.70
2017-08-23T07:39:56.547Z,26.00
2017-08-23T07:42:24.034Z,26.40
2017-08-23T07:44:55.732Z,26.30
2017-08-23T07:47:23.202Z,26.30
2017-08-23T07:49:50.676Z,27.00
2017-08-23T07:52:18.145Z,26.80
2017-08-23T07:54:45.659Z,26.10
2017-08-23T07:57:13.102Z,26.60
2017-08-23T07:59:40.571Z,26.10
2017-08-23T08:02:08.049Z,27.50
2017-08-23T08:04:35.486Z,28.10
2017-08-23T08:07:02.945Z,27.50
2017-08-23T08:09:30.382Z,28.10
2017-08-23T08:11:57.954Z,26.90
2017-08-23T08:14:25.432Z,26.80
2017-08-23T08:16:52.892Z,26.70
2017-08-23T08:19:20.372Z,27.40
2017-08-23T08:21:47.820Z,26.90
2017-08-23T08:24:15.269Z,27.00
2017-08-23T08:26:43.516Z,28.20
2017-08-23T08:29:10.991Z,28.20
2017-08-23T08:31:38.460Z,29.50
2017-08-23T08:34:05.915Z,29.90
2017-08-23T08:36:33.348Z,29.60
2017-08-23T08:39:00.807Z,29.20
2017-08-23T08:41:28.253Z,28.90
2017-08-23T08:43:55.744Z,29.30
2017-08-23T08:46:23.201Z,29.20
2017-08-23T08:48:50.676Z,26.70
2017-08-23T08:51:18.139Z,27.20
2017-08-23T08:53:45.638Z,28.20
2017-08-23T08:56:13.108Z,28.90
2017-08-23T08:58:40.568Z,29.50
2017-08-23T09:01:08.033Z,30.20
2017-08-23T09:03:35.519Z,30.80
2017-08-23T09:06:02.951Z,30.60
2017-08-23T09:08:30.408Z,30.00
2017-08-23T09:10:57.849Z,30.10
2017-08-23T09:13:25.311Z,31.30
2017-08-23T09:15:52.800Z,30.10
2017-08-23T09:18:20.312Z,30.30
2017-08-23T09:20:47.765Z,30.80
2017-08-23T09:23:15.194Z,31.00
2017-08-23T09:25:43.301Z,31.00
2017-08-23T09:28:10.740Z,31.30
2017-08-23T09:30:38.252Z,30.60
2017-08-23T09:33:05.702Z,31.40
2017-08-23T09:35:33.157Z,32.30
2017-08-23T09:38:00.680Z,29.60
2017-08-23T09:40:28.282Z,30.30
2017-08-23T09:42:55.857Z,29.20
2017-08-23T09:45:23.310Z,30.20
2017-08-23T09:47:50.782Z,29.80
2017-08-23T09:50:18.225Z,31.20
2017-08-23T09:52:45.688Z,32.10
2017-08-23T09:55:13.171Z,33.10
2017-08-23T09:57:40.604Z,32.70
2017-08-23T10:00:08.641Z,30.40
2017-08-23T10:02:36.105Z,30.90
2017-08-23T10:05:03.580Z,31.20
2017-08-23T10:07:31.809Z,31.70
2017-08-23T10:09:59.269Z,31.70
2017-08-23T10:12:26.770Z,32.40
2017-08-23T10:14:54.239Z,32.80
2017-08-23T10:17:21.683Z,32.40
2017-08-23T10:19:49.157Z,32.10
2017-08-23T10:22:16.597Z,31.80
2017-08-23T10:24:44.693Z,31.90
2017-08-23T10:27:12.160Z,31.50
2017-08-23T10:29:39.608Z,32.10
2017-08-23T10:32:07.080Z,32.10
2017-08-23T10:34:34.521Z,32.00
2017-08-23T10:37:02.026Z,31.50
2017-08-23T10:39:29.449Z,31.20
2017-08-23T10:41:56.925Z,31.10
2017-08-23T10:44:24.384Z,31.50
2017-08-23T10:46:51.823Z,31.10
2017-08-23T10:49:19.428Z,31.00
2017-08-23T10:51:46.896Z,31.20
2017-08-23T10:54:14.334Z,31.40
2017-08-23T10:56:41.808Z,32.10
2017-08-23T10:59:09.247Z,33.10
2017-08-23T11:01:36.708Z,32.30
2017-08-23T11:04:04.159Z,31.80
2017-08-23T11:06:32.033Z,31.90
2017-08-23T11:08:59.496Z,31.50
2017-08-23T11:11:26.937Z,31.10
2017-08-23T11:13:54.412Z,30.90
2017-08-23T11:16:21.861Z,30.30
2017-08-23T11:18:49.398Z,30.40
2017-08-23T11:21:16.849Z,30.70
2017-08-23T11:23:44.320Z,31.00
2017-08-23T11:26:11.768Z,31.50
2017-08-23T11:28:39.234Z,31.90
2017-08-23T11:31:06.703Z,31.20
2017-08-23T11:33:34.157Z,31.10
2017-08-23T11:36:01.626Z,30.70
2017-08-23T11:38:29.089Z,30.40
2017-08-23T11:40:56.541Z,29.70
2017-08-23T11:43:23.988Z,30.50
2017-08-23T11:45:51.435Z,30.10
2017-08-23T11:48:18.896Z,30.50
2017-08-23T11:50:46.359Z,31.00
2017-08-23T11:53:13.820Z,30.90
2017-08-23T11:55:41.264Z,31.20
2017-08-23T11:58:08.720Z,30.80
2017-08-23T12:00:36.232Z,30.40
2017-08-23T12:03:03.720Z,30.90
2017-08-23T12:05:31.191Z,30.70
2017-08-23T12:07:58.665Z,29.80
2017-08-23T12:10:26.103Z,30.50
2017-08-23T12:12:53.565Z,31.10
2017-08-23T12:15:21.059Z,31.90
2017-08-23T12:17:48.493Z,30.90
2017-08-23T12:20:16.721Z,29.60
2017-08-23T12:22:44.155Z,29.50
2017-08-23T12:25:11.631Z,29.30
2017-08-23T12:27:39.100Z,29.70
2017-08-23T12:30:06.557Z,30.60
2017-08-23T12:32:34.039Z,30.00
2017-08-23T12:35:01.481Z,29.60
2017-08-23T12:37:28.922Z,30.10
2017-08-23T12:39:56.375Z,30.90
2017-08-23T12:42:24.304Z,31.10
2017-08-23T12:44:51.758Z,31.00
2017-08-23T12:47:19.235Z,31.10
2017-08-23T12:49:46.706Z,31.20
2017-08-23T12:52:14.138Z,30.10
2017-08-23T12:54:41.730Z,30.60
2017-08-23T12:57:09.292Z,30.20
2017-08-23T12:59:36.854Z,30.00
2017-08-23T13:02:04.294Z,30.50
2017-08-23T13:04:31.761Z,30.70
2017-08-23T13:06:59.985Z,31.40
2017-08-23T13:09:27.446Z,31.40
2017-08-23T13:11:55.144Z,30.60
2017-08-23T13:14:22.591Z,31.10
2017-08-23T13:16:50.063Z,31.00
2017-08-23T13:19:17.558Z,30.90
2017-08-23T13:21:45.096Z,29.70
2017-08-23T13:24:12.531Z,30.50
2017-08-23T13:26:39.997Z,30.30
2017-08-23T13:29:07.466Z,29.90
2017-08-23T13:31:34.912Z,30.60
2017-08-23T13:34:02.383Z,30.90
2017-08-23T13:36:29.869Z,31.70
2017-08-23T13:38:57.312Z,31.70
2017-08-23T13:41:24.995Z,31.60
2017-08-23T13:43:52.474Z,31.50
2017-08-23T13:46:19.922Z,31.10
2017-08-23T13:48:47.360Z,30.20
2017-08-23T13:51:14.841Z,31.40
2017-08-23T13:53:42.305Z,32.00
2017-08-23T13:56:09.744Z,32.10
2017-08-23T13:58:38.988Z,32.40
2017-08-23T14:01:06.509Z,32.40
2017-08-23T14:03:34.005Z,32.20
2017-08-23T14:06:01.478Z,31.60
2017-08-23T14:08:28.908Z,31.60
2017-08-23T14:10:56.352Z,31.90
2017-08-23T14:13:24.616Z,30.40
2017-08-23T14:15:52.136Z,30.40
2017-08-23T14:18:19.591Z,30.70
2017-08-23T14:20:47.044Z,31.20
2017-08-23T14:23:14.516Z,31.60
2017-08-23T14:25:41.979Z,32.00
2017-08-23T14:28:09.425Z,31.70
2017-08-23T14:30:36.923Z,31.80
2017-08-23T14:33:04.349Z,31.20
2017-08-23T14:35:31.892Z,32.00
2017-08-23T14:37:59.512Z,31.90
2017-08-23T14:40:26.999Z,31.70
2017-08-23T14:42:54.465Z,31.60
2017-08-23T14:45:21.939Z,30.70
2017-08-23T14:47:49.367Z,31.40
2017-08-23T14:50:16.823Z,30.80
2017-08-23T14:52:44.271Z,30.60
2017-08-23T14:55:11.758Z,31.30
2017-08-23T14:57:39.223Z,31.60
2017-08-23T15:00:06.715Z,32.00
2017-08-23T15:02:34.147Z,32.30
2017-08-23T15:05:01.658Z,31.30
2017-08-23T15:07:29.139Z,30.10
2017-08-23T15:09:56.588Z,30.30
2017-08-23T15:12:24.054Z,30.40
2017-08-23T15:14:51.528Z,30.70
2017-08-23T15:17:19.009Z,31.60
2017-08-23T15:19:46.457Z,31.30
2017-08-23T15:22:13.976Z,31.90
2017-08-23T15:24:41.449Z,32.30
2017-08-23T15:27:08.898Z,32.30
2017-08-23T15:29:36.390Z,31.50
2017-08-23T15:32:03.868Z,32.10
2017-08-23T15:34:31.336Z,32.10
2017-08-23T15:36:59.563Z,31.60
2017-08-23T15:39:27.012Z,31.60
2017-08-23T15:41:54.521Z,32.00
2017-08-23T15:44:21.983Z,32.10
2017-08-23T15:46:49.480Z,31.70
2017-08-23T15:49:16.918Z,31.10
2017-08-23T15:51:44.368Z,30.70
2017-08-23T15:54:11.975Z,29.80
2017-08-23T15:56:39.423Z,28.80
2017-08-23T15:59:06.940Z,28.50
2017-08-23T16:01:34.416Z,28.50
2017-08-23T16:04:01.909Z,28.40
2017-08-23T16:06:29.998Z,28.30
2017-08-23T16:08:57.473Z,28.30
2017-08-23T16:11:25.034Z,28.10
2017-08-23T16:13:52.560Z,27.90
2017-08-23T16:16:20.158Z,27.90
2017-08-23T16:18:47.639Z,27.80
2017-08-23T16:21:15.115Z,27.70
2017-08-23T16:23:42.553Z,27.30
2017-08-23T16:26:10.016Z,27.10
2017-08-23T16:28:37.455Z,27.00
2017-08-23T16:31:04.908Z,26.90
2017-08-23T16:33:32.376Z,26.90
2017-08-23T16:35:59.832Z,27.00
2017-08-23T16:38:27.352Z,27.00
2017-08-23T16:40:54.768Z,27.20
2017-08-23T16:43:22.297Z,27.40
2017-08-23T16:45:49.744Z,27.40
2017-08-23T16:48:17.215Z,27.40
2017-08-23T16:50:44.714Z,27.60
2017-08-23T16:53:12.920Z,27.60
2017-08-23T16:55:40.380Z,27.50
2017-08-23T16:58:08.444Z,27.50
2017-08-23T17:00:35.904Z,27.60
2017-08-23T17:03:03.373Z,27.60
2017-08-23T17:05:30.831Z,27.50
2017-08-23T17:07:58.316Z,27.30
2017-08-23T17:10:26.126Z,27.00
2017-08-23T17:12:53.594Z,26.90
2017-08-23T17:15:21.040Z,26.80
2017-08-23T17:17:48.531Z,26.70
2017-08-23T17:20:16.018Z,26.60
2017-08-23T17:22:43.498Z,26.40
2017-08-23T17:25:10.994Z,26.50
2017-08-23T17:27:38.429Z,26.50
2017-08-23T17:30:05.925Z,26.60
2017-08-23T17:32:33.372Z,26.50
2017-08-23T17:35:00.836Z,26.40
2017-08-23T17:37:28.314Z,26.40
2017-08-23T17:39:55.789Z,26.40
2017-08-23T17:42:23.327Z,26.40
2017-08-23T17:44:50.760Z,26.20
2017-08-23T17:47:18.244Z,26.20
2017-08-23T17:49:45.685Z,26.10
2017-08-23T17:52:13.141Z,25.80
2017-08-23T17:54:40.599Z,25.80
2017-08-23T17:57:08.044Z,25.90
2017-08-23T17:59:35.523Z,25.70
2017-08-23T18:02:03.128Z,25.50
2017-08-23T18:04:30.598Z,25.70
2017-08-23T18:06:58.036Z,25.60
2017-08-23T18:09:25.564Z,25.40
2017-08-23T18:11:53.093Z,25.40
2017-08-23T18:14:21.241Z,25.30
2017-08-23T18:16:48.709Z,25.40
2017-08-23T18:19:16.157Z,25.40
2017-08-23T18:21:44.395Z,25.40
2017-08-23T18:24:11.872Z,25.40
2017-08-23T18:26:39.314Z,25.40
2017-08-23T18:29:06.788Z,25.20
2017-08-23T18:31:34.237Z,25.00
2017-08-23T18:34:01.701Z,24.90
2017-08-23T18:36:29.228Z,24.70
2017-08-23T18:38:56.750Z,24.60
2017-08-23T18:41:24.300Z,24.40
2017-08-23T18:43:51.761Z,24.30
2017-08-23T18:46:19.197Z,24.40
2017-08-23T18:48:46.695Z,24.30
2017-08-23T18:51:14.144Z,24.20
2017-08-23T18:53:41.608Z,24.20
2017-08-23T18:56:09.055Z,24.00
2017-08-23T18:58:39.259Z,23.90
2017-08-23T19:01:07.557Z,23.80
2017-08-23T19:03:35.013Z,23.80
2017-08-23T19:06:02.537Z,23.60
2017-08-23T19:08:29.982Z,23.70
2017-08-23T19:10:57.501Z,23.80
2017-08-23T19:13:24.965Z,23.80
2017-08-23T19:15:52.422Z,23.70
2017-08-23T19:18:19.918Z,23.70
2017-08-23T19:20:47.401Z,23.70
2017-08-23T19:23:14.888Z,23.70
2017-08-23T19:25:42.375Z,23.60
2017-08-23T19:28:09.908Z,23.50
2017-08-23T19:30:37.351Z,23.50
2017-08-23T19:33:04.805Z,23.40
2017-08-23T19:35:32.276Z,23.30
2017-08-23T19:37:59.733Z,23.30
2017-08-23T19:40:27.217Z,23.20
2017-08-23T19:42:54.658Z,23.10
2017-08-23T19:45:22.123Z,23.10
2017-08-23T19:47:49.674Z,23.10
2017-08-23T19:50:17.132Z,22.90
2017-08-23T19:52:44.712Z,22.70
2017-08-23T19:55:12.178Z,22.60
2017-08-23T19:57:39.656Z,22.50
2017-08-23T20:00:07.111Z,22.30
2017-08-23T20:02:34.576Z,22.30
2017-08-23T20:05:02.022Z,22.30
2017-08-23T20:07:29.512Z,22.20
2017-08-23T20:09:56.982Z,22.20
2017-08-23T20:12:24.432Z,22.10
2017-08-23T20:14:51.877Z,22.10
2017-08-23T20:17:19.344Z,22.20
2017-08-23T20:19:46.803Z,22.20
2017-08-23T20:22:14.261Z,22.20
2017-08-23T20:24:41.761Z,22.30
2017-08-23T20:27:09.234Z,22.10
2017-08-23T20:29:36.718Z,22.00
2017-08-23T20:32:04.202Z,21.90
2017-08-23T20:34:31.687Z,21.80
2017-08-23T20:36:59.110Z,21.80
2017-08-23T20:39:26.579Z,21.80
2017-08-23T20:41:54.067Z,21.80
2017-08-23T20:44:21.587Z,21.90
2017-08-23T20:46:49.883Z,22.10
2017-08-23T20:49:17.407Z,22.10
2017-08-23T20:51:45.109Z,22.10
2017-08-23T20:54:12.733Z,21.90
2017-08-23T20:56:40.297Z,21.80
2017-08-23T20:59:08.717Z,21.60
2017-08-23T21:01:36.187Z,21.60
2017-08-23T21:04:03.663Z,21.60
2017-08-23T21:06:31.091Z,21.70
2017-08-23T21:08:59.389Z,21.80
2017-08-23T21:11:26.873Z,21.80
2017-08-23T21:13:54.386Z,21.80
2017-08-23T21:16:21.965Z,21.80
2017-08-23T21:18:49.439Z,21.80
2017-08-23T21:21:20.709Z,21.80
2017-08-23T21:23:48.183Z,21.70
2017-08-23T21:26:15.700Z,21.70
2017-08-23T21:28:43.148Z,21.50
2017-08-23T21:31:10.638Z,21.50
2017-08-23T21:33:38.073Z,21.50
2017-08-23T21:36:05.546Z,21.50
2017-08-23T21:38:33.003Z,21.50
2017-08-23T21:41:00.444Z,21.40
2017-08-23T21:43:27.909Z,21.40
2017-08-23T21:45:55.922Z,21.40
2017-08-23T21:48:23.372Z,21.30
2017-08-23T21:50:50.839Z,21.30
2017-08-23T21:53:18.302Z,21.20
2017-08-23T21:55:45.776Z,21.20
2017-08-23T21:58:13.232Z,21.10
2017-08-23T22:00:40.691Z,21.00
2017-08-23T22:03:08.149Z,21.00
2017-08-23T22:05:35.607Z,21.00
2017-08-23T22:08:03.050Z,21.00
2017-08-23T22:10:30.517Z,21.00
2017-08-23T22:12:57.993Z,21.00
2017-08-23T22:15:25.456Z,21.00
2017-08-23T22:17:52.888Z,21.00
2017-08-23T22:20:20.343Z,20.90
2017-08-23T22:22:48.203Z,20.80
2017-08-23T22:25:16.293Z,20.80
2017-08-23T22:27:43.874Z,20.70
2017-08-23T22:30:15.356Z,20.70
2017-08-23T22:32:42.853Z,20.80
2017-08-23T22:35:10.288Z,20.70
2017-08-23T22:37:38.475Z,20.80
2017-08-23T22:40:05.916Z,20.80
2017-08-23T22:42:33.392Z,20.80
2017-08-23T22:45:00.871Z,20.90
2017-08-23T22:47:28.332Z,20.90
2017-08-23T22:49:55.788Z,20.80
2017-08-23T22:52:23.258Z,20.80
2017-08-23T22:54:50.713Z,20.70
2017-08-23T22:57:18.182Z,20.70
2017-08-23T22:59:45.640Z,20.70
2017-08-23T23:02:13.120Z,20.70
2017-08-23T23:04:40.635Z,20.60
2017-08-23T23:07:08.103Z,20.50
2017-08-23T23:09:35.562Z,20.50
2017-08-23T23:12:03.004Z,20.50
2017-08-23T23:14:30.487Z,20.50
2017-08-23T23:16:57.920Z,20.50
2017-08-23T23:19:25.401Z,20.50
2017-08-23T23:21:52.918Z,20.60
2017-08-23T23:24:20.340Z,20.60
2017-08-23T23:26:47.823Z,20.60
2017-08-23T23:29:15.279Z,20.60
2017-08-23T23:31:42.732Z,20.60
2017-08-23T23:34:10.203Z,20.60
2017-08-23T23:36:37.657Z,20.50
2017-08-23T23:39:05.137Z,20.50
2017-08-23T23:41:32.593Z,20.40
2017-08-23T23:44:00.803Z,20.40
2017-08-23T23:46:28.304Z,20.40
2017-08-23T23:48:55.754Z,20.40
2017-08-23T23:51:23.217Z,20.30
2017-08-23T23:53:50.676Z,20.40
2017-08-23T23:56:19.076Z,20.30
2017-08-23T23:58:46.546Z,20.30
